Decoded Metar for KMLS (MILES CITY in MT, USA) (IATA:MLS) | Meteo·Mobile Aviation Weather
aviador You're here:

KMLS Decoded Metar

MILES CITY in MT, USA
Report Time2018-09-19 15:53:00
UTC Time2018-09-19 16:45:19
Flight Rules vfr VFR
Wind050° at 14 kt
W.Decomp.*RWY 04: 14.0 kt HW 0.5 kt LCW
RWY 12: 1.9 kt HW 13.9 kt LCW
W.Rank050° ranks 13
Current wind is above 050° avg. (8.7)
Visibility9999 m
Phenomena:N/A
Clouds:Scattered 100 Hf
Expected CloudBase > 2,000 ft AGL from Temp-Dew spread
CeilingNone
Temp12°C (ISA +2)
Dew Point07°C (72% RH)
AAT6.3°C
QNH1019 hPa
Density Alt2,831 ft
Elevation2,628 ft
Report Wrong Elevation
Raw Report
KMLS 191553Z AUTO 05014KT 10SM SCT100 12/07 A3008 RMK AO2 SLP181
T01220072=

Extra information for KMLS:More info

Metar Taf Metar & Taf Last 4 Metars F.Rules Stats Wind Profile Meteogram Temp Stats Airport Information Weather charts Add Link Nearby VenuesMetar ALERT Operation Metar Decoded Social comments

AIRNAV info for KMLS